sensor_id;sensor_type;location;lat;lon;timestamp;pressure;altitude;pressure_sealevel;temperature;humidity
20003;BME280;10162;41.600;23.806;2023-03-26T00:01:52;94406.44;;;7.88;98.24
20003;BME280;10162;41.600;23.806;2023-03-26T00:04:18;94451.88;;;8.66;96.01
20003;BME280;10162;41.600;23.806;2023-03-26T00:06:46;94434.44;;;8.73;93.61
20003;BME280;10162;41.600;23.806;2023-03-26T00:09:14;94443.28;;;8.85;93.51
20003;BME280;10162;41.600;23.806;2023-03-26T00:11:42;94429.84;;;8.68;95.06
20003;BME280;10162;41.600;23.806;2023-03-26T00:14:13;94413.81;;;8.65;94.05
20003;BME280;10162;41.600;23.806;2023-03-26T00:16:43;94405.50;;;8.15;95.12
20003;BME280;10162;41.600;23.806;2023-03-26T00:19:10;94445.28;;;8.63;96.07
20003;BME280;10162;41.600;23.806;2023-03-26T00:21:36;94435.25;;;8.67;93.86
20003;BME280;10162;41.600;23.806;2023-03-26T00:24:06;94414.22;;;8.68;94.22
20003;BME280;10162;41.600;23.806;2023-03-26T00:26:33;94413.81;;;8.52;95.19
20003;BME280;10162;41.600;23.806;2023-03-26T00:29:00;94430.66;;;8.82;95.29
20003;BME280;10162;41.600;23.806;2023-03-26T00:31:27;94428.44;;;8.46;96.28
20003;BME280;10162;41.600;23.806;2023-03-26T00:37:07;94448.91;;;8.82;93.58
20003;BME280;10162;41.600;23.806;2023-03-26T00:39:33;94458.13;;;8.85;93.76
20003;BME280;10162;41.600;23.806;2023-03-26T00:42:04;94416.69;;;8.09;96.93
20003;BME280;10162;41.600;23.806;2023-03-26T00:44:32;94440.75;;;8.18;97.21
20003;BME280;10162;41.600;23.806;2023-03-26T00:46:59;94415.78;;;8.30;96.88
20003;BME280;10162;41.600;23.806;2023-03-26T00:49:25;94431.97;;;8.19;97.96
20003;BME280;10162;41.600;23.806;2023-03-26T00:51:58;94476.78;;;8.82;96.18
20003;BME280;10162;41.600;23.806;2023-03-26T00:54:28;94463.31;;;8.78;95.92
20003;BME280;10162;41.600;23.806;2023-03-26T00:56:54;94454.28;;;8.61;95.18
20003;BME280;10162;41.600;23.806;2023-03-26T00:59:23;94446.88;;;8.58;96.22
20003;BME280;10162;41.600;23.806;2023-03-26T01:01:48;94432.41;;;8.36;97.43
20003;BME280;10162;41.600;23.806;2023-03-26T01:04:47;94457.28;;;8.58;97.10
20003;BME280;10162;41.600;23.806;2023-03-26T01:07:16;94454.50;;;8.53;96.05
20003;BME280;10162;41.600;23.806;2023-03-26T01:09:50;94428.63;;;8.51;95.69
20003;BME280;10162;41.600;23.806;2023-03-26T01:12:42;94463.28;;;8.52;97.41
20003;BME280;10162;41.600;23.806;2023-03-26T01:15:08;94444.69;;;8.75;96.12
20003;BME280;10162;41.600;23.806;2023-03-26T01:17:35;94427.41;;;8.41;96.39
20003;BME280;10162;41.600;23.806;2023-03-26T01:29:40;94433.53;;;8.07;100.00
20003;BME280;10162;41.600;23.806;2023-03-26T01:36:11;94441.06;;;8.43;100.00
20003;BME280;10162;41.600;23.806;2023-03-26T01:39:00;94438.91;;;8.05;100.00
20003;BME280;10162;41.600;23.806;2023-03-26T01:41:41;94437.75;;;8.14;100.00
20003;BME280;10162;41.600;23.806;2023-03-26T01:47:32;94405.97;;;7.71;100.00
20003;BME280;10162;41.600;23.806;2023-03-26T01:50:02;94435.69;;;7.49;100.00
20003;BME280;10162;41.600;23.806;2023-03-26T01:56:38;94445.19;;;7.29;100.00
20003;BME280;10162;41.600;23.806;2023-03-26T01:59:03;94454.06;;;7.13;100.00
20003;BME280;10162;41.600;23.806;2023-03-26T02:01:35;94439.69;;;6.89;100.00
20003;BME280;10162;41.600;23.806;2023-03-26T02:07:25;94435.28;;;7.45;100.00
20003;BME280;10162;41.600;23.806;2023-03-26T02:09:58;94428.78;;;7.28;100.00
20003;BME280;10162;41.600;23.806;2023-03-26T02:12:36;94452.06;;;7.43;100.00
20003;BME280;10162;41.600;23.806;2023-03-26T02:15:05;94438.06;;;7.10;100.00
20003;BME280;10162;41.600;23.806;2023-03-26T02:17:31;94441.88;;;7.14;100.00
20003;BME280;10162;41.600;23.806;2023-03-26T02:20:04;94438.09;;;6.39;100.00
20003;BME280;10162;41.600;23.806;2023-03-26T02:22:38;94472.16;;;6.51;100.00
20003;BME280;10162;41.600;23.806;2023-03-26T02:25:17;94463.84;;;6.62;100.00
20003;BME280;10162;41.600;23.806;2023-03-26T02:27:50;94450.38;;;6.52;100.00
20003;BME280;10162;41.600;23.806;2023-03-26T02:30:25;94457.25;;;6.17;100.00
20003;BME280;10162;41.600;23.806;2023-03-26T02:33:10;94442.84;;;6.14;100.00
20003;BME280;10162;41.600;23.806;2023-03-26T02:35:49;94438.91;;;6.40;100.00
20003;BME280;10162;41.600;23.806;2023-03-26T02:38:15;94417.88;;;6.13;100.00
20003;BME280;10162;41.600;23.806;2023-03-26T02:40:46;94446.44;;;6.84;100.00
20003;BME280;10162;41.600;23.806;2023-03-26T02:47:22;94473.44;;;6.40;100.00
20003;BME280;10162;41.600;23.806;2023-03-26T02:50:04;94475.63;;;6.01;100.00
20003;BME280;10162;41.600;23.806;2023-03-26T02:53:10;94487.00;;;6.00;100.00
20003;BME280;10162;41.600;23.806;2023-03-26T02:55:42;94462.25;;;6.40;100.00
20003;BME280;10162;41.600;23.806;2023-03-26T02:58:12;94487.56;;;6.16;100.00
20003;BME280;10162;41.600;23.806;2023-03-26T03:00:48;94466.78;;;6.31;100.00
20003;BME280;10162;41.600;23.806;2023-03-26T03:03:37;94483.75;;;6.12;100.00
20003;BME280;10162;41.600;23.806;2023-03-26T03:06:26;94479.50;;;6.69;100.00
20003;BME280;10162;41.600;23.806;2023-03-26T03:08:57;94470.34;;;6.09;100.00
20003;BME280;10162;41.600;23.806;2023-03-26T03:11:46;94463.06;;;6.19;100.00
20003;BME280;10162;41.600;23.806;2023-03-26T03:14:36;94483.75;;;6.34;100.00
20003;BME280;10162;41.600;23.806;2023-03-26T03:17:03;94448.34;;;6.47;100.00
20003;BME280;10162;41.600;23.806;2023-03-26T03:19:38;94468.53;;;6.94;100.00
20003;BME280;10162;41.600;23.806;2023-03-26T03:25:23;94457.34;;;6.94;100.00
20003;BME280;10162;41.600;23.806;2023-03-26T03:27:51;94449.47;;;7.43;100.00
20003;BME280;10162;41.600;23.806;2023-03-26T03:30:20;94471.72;;;7.24;100.00
20003;BME280;10162;41.600;23.806;2023-03-26T03:33:25;94490.56;;;6.98;100.00
20003;BME280;10162;41.600;23.806;2023-03-26T03:35:53;94501.38;;;7.02;100.00
20003;BME280;10162;41.600;23.806;2023-03-26T03:38:23;94461.69;;;7.15;100.00
20003;BME280;10162;41.600;23.806;2023-03-26T03:40:51;94469.38;;;7.29;100.00
20003;BME280;10162;41.600;23.806;2023-03-26T03:43:19;94491.94;;;7.22;100.00
20003;BME280;10162;41.600;23.806;2023-03-26T03:45:59;94507.00;;;6.84;100.00
20003;BME280;10162;41.600;23.806;2023-03-26T03:48:34;94494.56;;;7.01;100.00
20003;BME280;10162;41.600;23.806;2023-03-26T03:51:05;94510.03;;;7.09;100.00
20003;BME280;10162;41.600;23.806;2023-03-26T03:53:41;94490.72;;;6.97;100.00
20003;BME280;10162;41.600;23.806;2023-03-26T03:56:09;94507.53;;;6.94;100.00
20003;BME280;10162;41.600;23.806;2023-03-26T03:58:57;94483.91;;;6.47;100.00
20003;BME280;10162;41.600;23.806;2023-03-26T04:01:34;94506.78;;;6.58;100.00
20003;BME280;10162;41.600;23.806;2023-03-26T04:07:34;94514.31;;;6.32;100.00
20003;BME280;10162;41.600;23.806;2023-03-26T04:10:04;94515.00;;;5.75;100.00
20003;BME280;10162;41.600;23.806;2023-03-26T04:16:53;94535.03;;;5.96;100.00
20003;BME280;10162;41.600;23.806;2023-03-26T04:19:24;94518.84;;;5.94;100.00
20003;BME280;10162;41.600;23.806;2023-03-26T04:21:53;94545.97;;;6.42;100.00
20003;BME280;10162;41.600;23.806;2023-03-26T04:24:23;94533.50;;;5.87;100.00
20003;BME280;10162;41.600;23.806;2023-03-26T04:27:19;94522.88;;;5.67;100.00
20003;BME280;10162;41.600;23.806;2023-03-26T04:29:49;94546.91;;;5.61;100.00
20003;BME280;10162;41.600;23.806;2023-03-26T04:32:46;94548.06;;;5.58;100.00
20003;BME280;10162;41.600;23.806;2023-03-26T04:35:18;94541.59;;;5.92;100.00
20003;BME280;10162;41.600;23.806;2023-03-26T04:37:56;94515.25;;;5.36;100.00
20003;BME280;10162;41.600;23.806;2023-03-26T04:40:34;94552.91;;;5.61;100.00
20003;BME280;10162;41.600;23.806;2023-03-26T04:43:32;94538.06;;;6.14;100.00
20003;BME280;10162;41.600;23.806;2023-03-26T04:46:21;94567.69;;;5.90;100.00
20003;BME280;10162;41.600;23.806;2023-03-26T04:49:03;94561.22;;;5.86;100.00
20003;BME280;10162;41.600;23.806;2023-03-26T04:51:45;94558.19;;;6.12;100.00
20003;BME280;10162;41.600;23.806;2023-03-26T04:54:34;94572.41;;;6.16;100.00
20003;BME280;10162;41.600;23.806;2023-03-26T04:57:12;94542.56;;;5.09;100.00
20003;BME280;10162;41.600;23.806;2023-03-26T04:59:53;94550.41;;;5.68;100.00
20003;BME280;10162;41.600;23.806;2023-03-26T05:02:21;94582.59;;;6.32;100.00
20003;BME280;10162;41.600;23.806;2023-03-26T05:04:55;94580.94;;;5.95;100.00
20003;BME280;10162;41.600;23.806;2023-03-26T05:07:30;94542.06;;;6.31;100.00
20003;BME280;10162;41.600;23.806;2023-03-26T05:10:00;94565.03;;;6.49;100.00
20003;BME280;10162;41.600;23.806;2023-03-26T05:12:53;94575.41;;;7.13;100.00
20003;BME280;10162;41.600;23.806;2023-03-26T05:15:25;94521.44;;;6.87;100.00
20003;BME280;10162;41.600;23.806;2023-03-26T05:17:53;94576.28;;;7.20;100.00
20003;BME280;10162;41.600;23.806;2023-03-26T05:20:28;94581.44;;;7.62;100.00
20003;BME280;10162;41.600;23.806;2023-03-26T05:22:56;94542.50;;;7.47;100.00
20003;BME280;10162;41.600;23.806;2023-03-26T05:25:26;94542.59;;;7.33;100.00
20003;BME280;10162;41.600;23.806;2023-03-26T05:27:54;94570.75;;;7.51;100.00
20003;BME280;10162;41.600;23.806;2023-03-26T05:30:24;94591.84;;;7.62;100.00
20003;BME280;10162;41.600;23.806;2023-03-26T05:33:13;94596.91;;;8.05;100.00
20003;BME280;10162;41.600;23.806;2023-03-26T05:35:58;94601.78;;;8.14;100.00
20003;BME280;10162;41.600;23.806;2023-03-26T05:38:24;94605.78;;;8.51;100.00
20003;BME280;10162;41.600;23.806;2023-03-26T05:41:01;94586.81;;;8.84;99.60
20003;BME280;10162;41.600;23.806;2023-03-26T05:43:32;94578.66;;;8.93;98.25
20003;BME280;10162;41.600;23.806;2023-03-26T05:46:13;94599.69;;;8.92;99.89
20003;BME280;10162;41.600;23.806;2023-03-26T05:48:41;94591.91;;;9.18;97.37
20003;BME280;10162;41.600;23.806;2023-03-26T05:51:07;94601.38;;;9.39;95.39
20003;BME280;10162;41.600;23.806;2023-03-26T05:56:42;94600.56;;;9.71;92.68
20003;BME280;10162;41.600;23.806;2023-03-26T05:59:50;94624.81;;;10.11;92.10
20003;BME280;10162;41.600;23.806;2023-03-26T06:06:40;94611.00;;;10.68;88.31
20003;BME280;10162;41.600;23.806;2023-03-26T06:09:07;94623.25;;;10.74;88.80
20003;BME280;10162;41.600;23.806;2023-03-26T06:11:33;94622.16;;;10.89;87.94
20003;BME280;10162;41.600;23.806;2023-03-26T06:14:02;94605.22;;;10.98;86.05
20003;BME280;10162;41.600;23.806;2023-03-26T06:16:28;94600.88;;;10.78;86.01
20003;BME280;10162;41.600;23.806;2023-03-26T06:19:05;94605.59;;;11.01;84.22
20003;BME280;10162;41.600;23.806;2023-03-26T06:21:54;94617.53;;;11.22;83.20
20003;BME280;10162;41.600;23.806;2023-03-26T06:24:26;94631.97;;;11.63;82.06
20003;BME280;10162;41.600;23.806;2023-03-26T06:27:04;94633.16;;;11.73;80.51
20003;BME280;10162;41.600;23.806;2023-03-26T06:29:33;94626.97;;;11.86;78.38
20003;BME280;10162;41.600;23.806;2023-03-26T06:32:26;94613.53;;;11.82;77.40
20003;BME280;10162;41.600;23.806;2023-03-26T06:34:57;94614.53;;;12.06;76.62
20003;BME280;10162;41.600;23.806;2023-03-26T06:37:25;94618.91;;;12.30;75.80
20003;BME280;10162;41.600;23.806;2023-03-26T06:39:56;94632.63;;;12.51;74.93
20003;BME280;10162;41.600;23.806;2023-03-26T06:42:44;94624.63;;;12.64;73.20
20003;BME280;10162;41.600;23.806;2023-03-26T06:45:28;94643.75;;;12.82;73.09
20003;BME280;10162;41.600;23.806;2023-03-26T06:48:27;94609.22;;;12.67;75.66
20003;BME280;10162;41.600;23.806;2023-03-26T06:51:14;94627.94;;;12.71;76.17
20003;BME280;10162;41.600;23.806;2023-03-26T06:54:01;94628.78;;;13.19;73.58
20003;BME280;10162;41.600;23.806;2023-03-26T06:56:45;94612.19;;;12.89;73.46
20003;BME280;10162;41.600;23.806;2023-03-26T06:59:35;94615.13;;;13.11;72.29
20003;BME280;10162;41.600;23.806;2023-03-26T07:02:34;94624.66;;;13.53;71.63
20003;BME280;10162;41.600;23.806;2023-03-26T07:05:18;94629.50;;;13.80;70.79
20003;BME280;10162;41.600;23.806;2023-03-26T07:08:03;94622.31;;;13.87;69.39
20003;BME280;10162;41.600;23.806;2023-03-26T07:10:49;94640.63;;;14.28;68.35
20003;BME280;10162;41.600;23.806;2023-03-26T07:13:25;94610.22;;;14.21;67.52
20003;BME280;10162;41.600;23.806;2023-03-26T07:16:09;94621.19;;;14.41;64.97
20003;BME280;10162;41.600;23.806;2023-03-26T07:18:55;94627.03;;;14.43;63.29
20003;BME280;10162;41.600;23.806;2023-03-26T07:21:27;94625.47;;;14.82;52.19
20003;BME280;10162;41.600;23.806;2023-03-26T07:24:00;94621.72;;;15.18;45.49
20003;BME280;10162;41.600;23.806;2023-03-26T07:27:21;94629.88;;;15.33;44.06
20003;BME280;10162;41.600;23.806;2023-03-26T07:29:57;94623.41;;;15.52;42.96
20003;BME280;10162;41.600;23.806;2023-03-26T07:33:03;94617.75;;;15.32;44.67
20003;BME280;10162;41.600;23.806;2023-03-26T07:47:41;94623.78;;;16.23;40.01
20003;BME280;10162;41.600;23.806;2023-03-26T07:50:19;94615.75;;;16.34;40.81
20003;BME280;10162;41.600;23.806;2023-03-26T07:53:04;94606.34;;;16.22;41.11
20003;BME280;10162;41.600;23.806;2023-03-26T07:55:51;94614.66;;;16.52;40.13
20003;BME280;10162;41.600;23.806;2023-03-26T08:19:53;94606.88;;;17.01;39.58
20003;BME280;10162;41.600;23.806;2023-03-26T08:22:37;94582.16;;;17.12;40.48
20003;BME280;10162;41.600;23.806;2023-03-26T08:30:20;94591.28;;;17.26;39.46
20003;BME280;10162;41.600;23.806;2023-03-26T08:33:19;94594.94;;;16.98;39.24
20003;BME280;10162;41.600;23.806;2023-03-26T08:35:45;94576.69;;;17.18;38.66
20003;BME280;10162;41.600;23.806;2023-03-26T08:38:14;94568.91;;;17.33;37.59
20003;BME280;10162;41.600;23.806;2023-03-26T08:47:21;94582.81;;;18.14;33.92
20003;BME280;10162;41.600;23.806;2023-03-26T08:50:17;94579.81;;;18.43;28.23
20003;BME280;10162;41.600;23.806;2023-03-26T09:01:24;94539.69;;;19.49;22.72
20003;BME280;10162;41.600;23.806;2023-03-26T09:14:44;94544.13;;;19.08;24.79
20003;BME280;10162;41.600;23.806;2023-03-26T09:33:46;94540.75;;;19.78;22.86
20003;BME280;10162;41.600;23.806;2023-03-26T09:39:08;94548.19;;;19.96;21.20
20003;BME280;10162;41.600;23.806;2023-03-26T09:41:43;94550.56;;;20.33;21.66
20003;BME280;10162;41.600;23.806;2023-03-26T09:58:11;94520.06;;;19.85;18.16
20003;BME280;10162;41.600;23.806;2023-03-26T10:03:57;94539.97;;;19.72;21.02
20003;BME280;10162;41.600;23.806;2023-03-26T10:11:47;94496.22;;;19.50;17.18
20003;BME280;10162;41.600;23.806;2023-03-26T10:22:23;94522.94;;;20.24;18.75
20003;BME280;10162;41.600;23.806;2023-03-26T10:30:27;94489.75;;;20.27;17.95
20003;BME280;10162;41.600;23.806;2023-03-26T10:33:34;94500.88;;;20.34;18.89
20003;BME280;10162;41.600;23.806;2023-03-26T10:36:34;94505.44;;;21.41;17.36
20003;BME280;10162;41.600;23.806;2023-03-26T10:50:04;94481.84;;;20.81;18.56
20003;BME280;10162;41.600;23.806;2023-03-26T10:56:06;94469.81;;;20.93;17.93
20003;BME280;10162;41.600;23.806;2023-03-26T10:58:38;94461.56;;;21.39;18.40
20003;BME280;10162;41.600;23.806;2023-03-26T11:01:11;94477.59;;;21.97;17.25
20003;BME280;10162;41.600;23.806;2023-03-26T11:04:13;94482.72;;;21.54;17.82
20003;BME280;10162;41.600;23.806;2023-03-26T11:09:44;94464.59;;;21.61;17.23
20003;BME280;10162;41.600;23.806;2023-03-26T11:18:34;94450.47;;;21.61;17.82
20003;BME280;10162;41.600;23.806;2023-03-26T11:21:46;94450.00;;;21.54;16.74
20003;BME280;10162;41.600;23.806;2023-03-26T11:25:00;94460.84;;;22.20;18.80
20003;BME280;10162;41.600;23.806;2023-03-26T11:33:05;94442.47;;;21.32;19.07
20003;BME280;10162;41.600;23.806;2023-03-26T11:35:40;94423.88;;;21.61;17.82
20003;BME280;10162;41.600;23.806;2023-03-26T11:38:24;94437.84;;;22.29;18.96
20003;BME280;10162;41.600;23.806;2023-03-26T11:40:53;94442.16;;;21.38;18.38
20003;BME280;10162;41.600;23.806;2023-03-26T11:43:40;94434.44;;;21.71;18.08
20003;BME280;10162;41.600;23.806;2023-03-26T11:46:11;94407.06;;;22.42;17.95
20003;BME280;10162;41.600;23.806;2023-03-26T11:48:44;94427.81;;;22.63;18.18
20003;BME280;10162;41.600;23.806;2023-03-26T11:51:16;94427.25;;;22.00;17.91
20003;BME280;10162;41.600;23.806;2023-03-26T11:53:45;94413.81;;;21.87;17.37
20003;BME280;10162;41.600;23.806;2023-03-26T11:56:31;94409.47;;;21.67;18.25
20003;BME280;10162;41.600;23.806;2023-03-26T11:59:12;94418.09;;;21.82;17.47
20003;BME280;10162;41.600;23.806;2023-03-26T12:01:54;94414.00;;;21.95;19.02
20003;BME280;10162;41.600;23.806;2023-03-26T12:04:27;94404.22;;;21.85;19.34
20003;BME280;10162;41.600;23.806;2023-03-26T12:07:08;94389.03;;;21.62;19.17
20003;BME280;10162;41.600;23.806;2023-03-26T12:09:48;94405.16;;;22.00;17.97
20003;BME280;10162;41.600;23.806;2023-03-26T12:12:17;94417.81;;;21.84;19.03
20003;BME280;10162;41.600;23.806;2023-03-26T12:14:44;94405.63;;;21.20;18.20
20003;BME280;10162;41.600;23.806;2023-03-26T12:17:13;94393.88;;;21.55;17.55
20003;BME280;10162;41.600;23.806;2023-03-26T12:19:41;94407.38;;;21.64;18.49
20003;BME280;10162;41.600;23.806;2023-03-26T12:25:14;94404.59;;;22.03;18.62
20003;BME280;10162;41.600;23.806;2023-03-26T12:30:26;94383.19;;;22.13;18.68
20003;BME280;10162;41.600;23.806;2023-03-26T12:33:00;94384.09;;;22.03;19.70
20003;BME280;10162;41.600;23.806;2023-03-26T12:35:30;94381.72;;;22.25;19.48
20003;BME280;10162;41.600;23.806;2023-03-26T12:43:46;94371.47;;;22.14;20.18
20003;BME280;10162;41.600;23.806;2023-03-26T12:46:24;94387.84;;;22.45;19.35
20003;BME280;10162;41.600;23.806;2023-03-26T12:48:54;94363.53;;;22.09;18.72
20003;BME280;10162;41.600;23.806;2023-03-26T12:59:20;94370.00;;;22.64;19.04
20003;BME280;10162;41.600;23.806;2023-03-26T13:14:00;94356.28;;;22.33;18.26
20003;BME280;10162;41.600;23.806;2023-03-26T13:16:54;94339.84;;;23.06;19.25
20003;BME280;10162;41.600;23.806;2023-03-26T13:19:33;94346.19;;;22.11;18.61
20003;BME280;10162;41.600;23.806;2023-03-26T13:22:29;94334.66;;;22.58;18.89
20003;BME280;10162;41.600;23.806;2023-03-26T13:25:03;94343.00;;;22.52;19.22
20003;BME280;10162;41.600;23.806;2023-03-26T13:35:58;94339.78;;;22.74;17.13
20003;BME280;10162;41.600;23.806;2023-03-26T13:43:56;94341.81;;;23.14;16.93
20003;BME280;10162;41.600;23.806;2023-03-26T13:46:37;94343.16;;;23.90;18.38
20003;BME280;10162;41.600;23.806;2023-03-26T13:49:12;94342.66;;;23.88;17.13
20003;BME280;10162;41.600;23.806;2023-03-26T13:57:04;94329.03;;;22.97;16.62
20003;BME280;10162;41.600;23.806;2023-03-26T14:02:35;94338.13;;;23.29;19.89
20003;BME280;10162;41.600;23.806;2023-03-26T14:07:52;94319.66;;;23.00;19.12
20003;BME280;10162;41.600;23.806;2023-03-26T14:10:26;94338.72;;;23.07;20.88
20003;BME280;10162;41.600;23.806;2023-03-26T14:13:00;94337.22;;;22.45;19.64
20003;BME280;10162;41.600;23.806;2023-03-26T14:18:58;94340.81;;;21.69;18.56
20003;BME280;10162;41.600;23.806;2023-03-26T14:21:53;94326.00;;;21.63;18.59
20003;BME280;10162;41.600;23.806;2023-03-26T14:35:57;94340.44;;;21.80;18.44
20003;BME280;10162;41.600;23.806;2023-03-26T14:41:23;94346.88;;;21.74;19.14
20003;BME280;10162;41.600;23.806;2023-03-26T14:44:23;94325.22;;;22.10;17.34
20003;BME280;10162;41.600;23.806;2023-03-26T15:02:17;94358.13;;;21.66;16.88
20003;BME280;10162;41.600;23.806;2023-03-26T15:19:45;94382.81;;;21.43;17.50
20003;BME280;10162;41.600;23.806;2023-03-26T15:34:02;94367.88;;;20.84;19.07
20003;BME280;10162;41.600;23.806;2023-03-26T16:03:53;94378.25;;;17.94;20.51
20003;BME280;10162;41.600;23.806;2023-03-26T16:06:28;94382.38;;;17.69;20.86
20003;BME280;10162;41.600;23.806;2023-03-26T16:17:04;94390.91;;;17.45;22.89
20003;BME280;10162;41.600;23.806;2023-03-26T16:19:57;94389.00;;;17.35;19.07
20003;BME280;10162;41.600;23.806;2023-03-26T16:30:38;94389.25;;;16.70;20.45
20003;BME280;10162;41.600;23.806;2023-03-26T16:33:18;94420.34;;;16.41;22.24
20003;BME280;10162;41.600;23.806;2023-03-26T16:36:29;94418.16;;;15.89;23.13
20003;BME280;10162;41.600;23.806;2023-03-26T16:38:47;94393.03;;;15.43;25.00
20003;BME280;10162;41.600;23.806;2023-03-26T16:50:44;94423.16;;;14.12;27.02
20003;BME280;10162;41.600;23.806;2023-03-26T16:53:35;94428.88;;;14.49;25.95
20003;BME280;10162;41.600;23.806;2023-03-26T16:56:44;94404.63;;;15.25;22.57
20003;BME280;10162;41.600;23.806;2023-03-26T17:11:07;94451.88;;;13.67;26.20
20003;BME280;10162;41.600;23.806;2023-03-26T17:17:08;94461.38;;;13.45;26.81
20003;BME280;10162;41.600;23.806;2023-03-26T17:26:10;94437.84;;;12.62;30.28
20003;BME280;10162;41.600;23.806;2023-03-26T17:37:26;94470.09;;;14.20;25.38
20003;BME280;10162;41.600;23.806;2023-03-26T17:43:01;94493.34;;;13.88;26.79
20003;BME280;10162;41.600;23.806;2023-03-26T17:45:30;94482.97;;;13.58;27.72
20003;BME280;10162;41.600;23.806;2023-03-26T17:48:07;94490.00;;;13.23;30.37
20003;BME280;10162;41.600;23.806;2023-03-26T17:53:46;94503.75;;;12.65;30.14
20003;BME280;10162;41.600;23.806;2023-03-26T17:56:18;94510.50;;;12.73;30.49
20003;BME280;10162;41.600;23.806;2023-03-26T17:58:49;94504.00;;;12.64;31.48
20003;BME280;10162;41.600;23.806;2023-03-26T18:01:25;94511.03;;;12.93;30.67
20003;BME280;10162;41.600;23.806;2023-03-26T18:04:17;94520.28;;;13.37;29.65
20003;BME280;10162;41.600;23.806;2023-03-26T18:17:04;94505.38;;;13.61;28.93
20003;BME280;10162;41.600;23.806;2023-03-26T18:19:48;94523.97;;;13.71;29.31
20003;BME280;10162;41.600;23.806;2023-03-26T18:26:07;94535.34;;;13.30;30.46
20003;BME280;10162;41.600;23.806;2023-03-26T18:28:34;94496.91;;;13.06;30.21
20003;BME280;10162;41.600;23.806;2023-03-26T18:31:17;94535.25;;;13.07;33.10
20003;BME280;10162;41.600;23.806;2023-03-26T18:33:55;94540.59;;;13.00;32.53
20003;BME280;10162;41.600;23.806;2023-03-26T18:36:25;94537.38;;;12.38;32.67
20003;BME280;10162;41.600;23.806;2023-03-26T18:38:57;94539.16;;;12.56;32.24
20003;BME280;10162;41.600;23.806;2023-03-26T18:41:35;94526.16;;;12.31;34.31
20003;BME280;10162;41.600;23.806;2023-03-26T18:44:23;94520.44;;;12.23;35.82
20003;BME280;10162;41.600;23.806;2023-03-26T18:46:51;94533.66;;;11.91;34.83
20003;BME280;10162;41.600;23.806;2023-03-26T18:49:19;94530.13;;;11.79;35.83
20003;BME280;10162;41.600;23.806;2023-03-26T18:51:45;94525.13;;;11.03;36.84
20003;BME280;10162;41.600;23.806;2023-03-26T18:57:29;94530.34;;;11.28;38.30
20003;BME280;10162;41.600;23.806;2023-03-26T19:00:06;94535.66;;;11.46;38.19
20003;BME280;10162;41.600;23.806;2023-03-26T19:02:43;94540.56;;;10.80;38.31
20003;BME280;10162;41.600;23.806;2023-03-26T19:05:14;94506.66;;;10.98;38.44
20003;BME280;10162;41.600;23.806;2023-03-26T19:07:41;94484.28;;;10.40;38.68
20003;BME280;10162;41.600;23.806;2023-03-26T19:10:14;94525.22;;;10.84;39.50
20003;BME280;10162;41.600;23.806;2023-03-26T19:15:53;94490.72;;;10.75;39.86
20003;BME280;10162;41.600;23.806;2023-03-26T19:18:25;94485.56;;;10.62;41.33
20003;BME280;10162;41.600;23.806;2023-03-26T19:20:55;94480.50;;;10.29;40.28
20003;BME280;10162;41.600;23.806;2023-03-26T19:27:16;94517.81;;;10.81;38.89
20003;BME280;10162;41.600;23.806;2023-03-26T19:29:42;94546.78;;;10.79;39.47
20003;BME280;10162;41.600;23.806;2023-03-26T19:36:04;94542.44;;;10.66;40.02
20003;BME280;10162;41.600;23.806;2023-03-26T19:38:51;94552.66;;;10.74;41.06
20003;BME280;10162;41.600;23.806;2023-03-26T19:41:29;94521.81;;;9.87;41.66
20003;BME280;10162;41.600;23.806;2023-03-26T19:47:18;94528.69;;;10.40;43.24
20003;BME280;10162;41.600;23.806;2023-03-26T19:49:56;94525.56;;;10.05;41.22
20003;BME280;10162;41.600;23.806;2023-03-26T19:52:42;94536.22;;;10.16;42.76
20003;BME280;10162;41.600;23.806;2023-03-26T19:55:22;94506.22;;;10.25;41.97
20003;BME280;10162;41.600;23.806;2023-03-26T19:57:52;94488.47;;;9.89;41.96
20003;BME280;10162;41.600;23.806;2023-03-26T20:00:18;94502.81;;;9.61;44.26
20003;BME280;10162;41.600;23.806;2023-03-26T20:03:03;94525.38;;;10.19;44.86
20003;BME280;10162;41.600;23.806;2023-03-26T20:05:32;94515.56;;;10.02;43.53
20003;BME280;10162;41.600;23.806;2023-03-26T20:08:12;94528.38;;;10.16;44.29
20003;BME280;10162;41.600;23.806;2023-03-26T20:10:42;94528.63;;;9.88;44.34
20003;BME280;10162;41.600;23.806;2023-03-26T20:13:35;94544.47;;;10.07;44.05
20003;BME280;10162;41.600;23.806;2023-03-26T20:16:25;94536.72;;;9.61;46.60
20003;BME280;10162;41.600;23.806;2023-03-26T20:18:52;94512.25;;;9.29;45.35
20003;BME280;10162;41.600;23.806;2023-03-26T20:21:26;94534.72;;;9.56;44.67
20003;BME280;10162;41.600;23.806;2023-03-26T20:23:55;94509.81;;;9.73;43.83
20003;BME280;10162;41.600;23.806;2023-03-26T20:26:28;94503.44;;;10.14;41.61
20003;BME280;10162;41.600;23.806;2023-03-26T20:28:54;94473.34;;;10.05;41.94
20003;BME280;10162;41.600;23.806;2023-03-26T20:31:23;94474.34;;;10.04;43.00
20003;BME280;10162;41.600;23.806;2023-03-26T20:33:58;94445.13;;;9.75;43.81
20003;BME280;10162;41.600;23.806;2023-03-26T20:36:25;94505.22;;;9.56;44.87
20003;BME280;10162;41.600;23.806;2023-03-26T20:38:52;94490.94;;;9.58;46.48
20003;BME280;10162;41.600;23.806;2023-03-26T20:41:22;94470.56;;;9.22;45.58
20003;BME280;10162;41.600;23.806;2023-03-26T20:44:17;94516.47;;;9.36;45.50
20003;BME280;10162;41.600;23.806;2023-03-26T20:46:45;94479.34;;;9.41;45.31
20003;BME280;10162;41.600;23.806;2023-03-26T20:49:12;94501.19;;;9.73;46.33
20003;BME280;10162;41.600;23.806;2023-03-26T20:51:43;94480.16;;;9.35;45.30
20003;BME280;10162;41.600;23.806;2023-03-26T20:54:24;94486.59;;;9.32;45.83
20003;BME280;10162;41.600;23.806;2023-03-26T20:56:52;94502.16;;;9.78;46.52